Time;durP1;ratioP1;P1;durP2;ratioP2;P2;SDS_P1;SDS_P2;PMS_P1;PMS_P2;Temp;Humidity;BMP_temperature;BMP_pressure;BME280_temperature;BME280_humidity;BME280_pressure;Samples;Min_cycle;Max_cycle;Signal;HPM_P1;HPM_P2
2023/06/18 00:02:05;;;;;;;6.30;3.42;;;16.50;89.30;;;;;;5051280;28;20497;-51
2023/06/18 00:04:32;;;;;;;8.73;3.28;;;16.50;89.40;;;;;;5051391;28;20060;-50
2023/06/18 00:06:58;;;;;;;7.38;3.53;;;16.50;89.30;;;;;;5050021;28;20087;-52
2023/06/18 00:09:23;;;;;;;8.77;3.75;;;16.50;89.60;;;;;;5051318;28;20037;-50
2023/06/18 00:11:50;;;;;;;6.78;3.20;;;16.50;89.70;;;;;;5051087;28;20029;-51
2023/06/18 00:14:16;;;;;;;6.03;3.30;;;16.50;89.70;;;;;;5051021;28;20517;-51
2023/06/18 00:16:42;;;;;;;6.07;3.35;;;16.50;89.60;;;;;;5051494;28;20478;-50
2023/06/18 00:19:08;;;;;;;5.65;3.00;;;16.50;89.50;;;;;;5051061;28;20029;-51
2023/06/18 00:21:34;;;;;;;6.85;3.30;;;16.40;89.70;;;;;;5050937;28;20021;-50
2023/06/18 00:24:00;;;;;;;6.45;3.10;;;16.40;89.80;;;;;;5051292;28;20040;-50
2023/06/18 00:26:25;;;;;;;6.00;3.60;;;16.40;90.10;;;;;;5049908;28;20482;-50
2023/06/18 00:28:53;;;;;;;5.45;3.17;;;16.40;90.50;;;;;;5050958;28;20075;-49
2023/06/18 00:31:20;;;;;;;6.95;3.47;;;16.30;90.60;;;;;;5053637;28;20052;-52
2023/06/18 00:33:45;;;;;;;6.13;3.30;;;16.30;91.10;;;;;;5053947;28;20527;-49
2023/06/18 00:36:12;;;;;;;9.52;3.55;;;16.20;91.50;;;;;;5055076;28;20052;-49
2023/06/18 00:38:45;;;;;;;7.05;3.60;;;16.20;92.10;;;;;;5054893;28;20036;-49
2023/06/18 00:41:11;;;;;;;7.28;4.03;;;16.10;92.50;;;;;;5053550;28;20033;-49
2023/06/18 00:43:37;;;;;;;5.82;3.28;;;16.10;93.10;;;;;;5053908;28;20491;-52
2023/06/18 00:46:04;;;;;;;6.32;3.60;;;16.00;93.30;;;;;;5054176;28;20512;-49
2023/06/18 00:48:31;;;;;;;8.88;3.80;;;16.00;93.70;;;;;;5053959;28;20036;-53
2023/06/18 00:50:58;;;;;;;5.55;3.40;;;15.90;93.80;;;;;;5054798;28;20025;-54
2023/06/18 00:53:25;;;;;;;6.50;3.25;;;15.90;93.80;;;;;;5054892;28;20040;-52
2023/06/18 00:55:52;;;;;;;5.82;3.38;;;15.90;94.00;;;;;;5053790;28;20037;-52
2023/06/18 00:58:23;;;;;;;6.15;3.70;;;15.80;94.00;;;;;;5054954;28;20104;-50
2023/06/18 01:00:50;;;;;;;6.70;3.45;;;15.80;94.00;;;;;;5054833;28;20048;-51
2023/06/18 01:03:21;;;;;;;5.78;3.50;;;15.80;93.80;;;;;;5053677;28;20048;-52
2023/06/18 01:05:53;;;;;;;8.77;3.65;;;15.80;93.90;;;;;;5055062;28;20108;-54
2023/06/18 01:08:23;;;;;;;8.35;3.38;;;15.80;94.00;;;;;;5054585;28;20035;-51
2023/06/18 01:10:57;;;;;;;5.68;3.13;;;15.80;94.10;;;;;;5054820;28;20477;-53
2023/06/18 01:13:25;;;;;;;5.45;3.25;;;15.70;94.30;;;;;;5053556;28;20040;-53
2023/06/18 01:15:51;;;;;;;6.40;3.78;;;15.70;94.40;;;;;;5053233;28;20037;-52
2023/06/18 01:18:17;;;;;;;5.72;3.30;;;15.80;94.60;;;;;;5055066;28;20466;-53
2023/06/18 01:20:45;;;;;;;6.50;3.40;;;15.70;94.90;;;;;;5054651;28;20032;-53
2023/06/18 01:23:27;;;;;;;5.22;3.25;;;15.70;95.40;;;;;;5054982;28;20482;-53
2023/06/18 01:25:57;;;;;;;6.47;3.40;;;15.70;95.30;;;;;;5055253;28;20400;-53
2023/06/18 01:28:24;;;;;;;6.07;3.45;;;15.70;95.50;;;;;;5053583;28;20115;-52
2023/06/18 01:30:53;;;;;;;6.20;3.33;;;15.70;95.90;;;;;;5053577;28;20036;-54
2023/06/18 01:33:21;;;;;;;9.30;4.03;;;15.70;96.30;;;;;;5053265;28;20040;-52
2023/06/18 01:35:47;;;;;;;7.18;3.35;;;15.60;96.40;;;;;;5054966;28;20054;-54
2023/06/18 01:38:36;;;;;;;6.43;3.85;;;15.50;96.80;;;;;;5054710;28;20033;-53
2023/06/18 01:41:18;;;;;;;6.55;3.72;;;15.50;97.30;;;;;;5054084;28;20025;-52
2023/06/18 01:43:57;;;;;;;7.07;3.80;;;15.50;97.40;;;;;;5054424;28;20440;-49
2023/06/18 01:46:23;;;;;;;8.32;3.95;;;15.50;97.70;;;;;;5054715;28;20070;-52
2023/06/18 01:48:58;;;;;;;7.22;3.95;;;15.40;98.20;;;;;;5054595;28;20394;-52
2023/06/18 01:51:25;;;;;;;9.98;4.03;;;15.50;99.10;;;;;;5054144;28;20401;-53
2023/06/18 01:53:53;;;;;;;5.97;3.70;;;15.40;99.70;;;;;;5054353;28;20029;-52
2023/06/18 01:56:22;;;;;;;7.60;3.92;;;15.40;99.80;;;;;;5053921;28;20109;-54
2023/06/18 01:58:48;;;;;;;5.82;3.90;;;15.50;99.90;;;;;;5052416;28;20497;-52
2023/06/18 02:01:13;;;;;;;7.43;4.10;;;15.50;99.90;;;;;;5052240;28;20095;-50
2023/06/18 02:03:40;;;;;;;7.55;4.25;;;15.50;99.90;;;;;;5053822;28;20033;-54
2023/06/18 02:06:07;;;;;;;8.10;4.47;;;15.50;99.90;;;;;;5053836;28;20037;-51
2023/06/18 02:08:32;;;;;;;8.45;4.45;;;15.40;99.90;;;;;;5052030;28;20063;-54
2023/06/18 02:10:59;;;;;;;7.30;3.83;;;15.40;99.90;;;;;;5052216;28;20033;-51
2023/06/18 02:13:25;;;;;;;6.85;3.78;;;15.30;99.90;;;;;;5053368;28;20079;-53
2023/06/18 02:15:50;;;;;;;8.60;3.70;;;15.30;99.90;;;;;;5053510;28;20382;-52
2023/06/18 02:18:17;;;;;;;6.68;3.70;;;15.30;99.90;;;;;;5053198;28;20051;-52
2023/06/18 02:20:44;;;;;;;7.28;3.72;;;15.30;99.90;;;;;;5053271;28;20025;-51
2023/06/18 02:23:09;;;;;;;7.25;3.85;;;15.30;99.90;;;;;;5053394;28;20123;-51
2023/06/18 02:25:35;;;;;;;6.45;3.80;;;15.30;99.90;;;;;;5053854;28;20107;-51
2023/06/18 02:28:02;;;;;;;5.90;4.03;;;15.40;99.90;;;;;;5053064;28;20036;-53
2023/06/18 02:30:29;;;;;;;8.63;4.38;;;15.40;99.90;;;;;;5053094;28;20033;-54
2023/06/18 02:32:58;;;;;;;6.40;3.78;;;15.40;99.90;;;;;;5053092;28;20033;-50
2023/06/18 02:35:25;;;;;;;6.18;3.80;;;15.30;99.90;;;;;;5051696;28;20057;-52
2023/06/18 02:37:52;;;;;;;5.88;3.58;;;15.30;99.90;;;;;;5053227;28;20021;-52
2023/06/18 02:40:18;;;;;;;6.93;4.05;;;15.30;99.90;;;;;;5052172;28;20436;-52
2023/06/18 02:42:50;;;;;;;7.50;4.07;;;15.20;99.90;;;;;;5051727;28;20112;-52
2023/06/18 02:45:25;;;;;;;5.88;3.58;;;15.20;99.90;;;;;;5053464;28;20033;-55
2023/06/18 02:47:51;;;;;;;7.78;3.80;;;15.20;99.90;;;;;;5053061;28;20032;-54
2023/06/18 02:50:19;;;;;;;7.10;3.90;;;15.10;99.90;;;;;;5051735;28;20039;-53
2023/06/18 02:52:46;;;;;;;6.65;4.25;;;15.20;99.90;;;;;;5051460;28;20021;-53
2023/06/18 02:55:13;;;;;;;7.25;3.90;;;15.10;99.90;;;;;;5053116;28;20448;-55
2023/06/18 02:57:39;;;;;;;8.60;4.07;;;15.20;99.90;;;;;;5051513;28;20037;-54
2023/06/18 03:00:11;;;;;;;6.38;3.75;;;15.20;99.90;;;;;;5053260;28;20028;-55
2023/06/18 03:02:39;;;;;;;9.57;4.03;;;15.20;99.90;;;;;;5051748;28;20554;-53
2023/06/18 03:05:08;;;;;;;9.43;4.03;;;15.30;99.90;;;;;;5051999;28;20036;-54
2023/06/18 03:07:33;;;;;;;7.65;4.15;;;15.30;99.90;;;;;;5051418;28;20055;-51
2023/06/18 03:10:00;;;;;;;6.22;3.90;;;15.20;99.90;;;;;;5051634;28;20021;-53
2023/06/18 03:12:28;;;;;;;6.43;3.97;;;15.20;99.90;;;;;;5051222;28;20397;-52
2023/06/18 03:14:55;;;;;;;7.28;4.00;;;15.10;99.90;;;;;;5051374;28;20029;-53
2023/06/18 03:17:22;;;;;;;5.50;3.40;;;15.10;99.90;;;;;;5051193;28;20398;-54
2023/06/18 03:19:48;;;;;;;6.22;3.70;;;15.20;99.90;;;;;;5051460;28;20025;-54
2023/06/18 03:22:14;;;;;;;10.35;4.47;;;15.20;99.90;;;;;;5051112;28;20402;-51
2023/06/18 03:24:40;;;;;;;7.15;3.63;;;15.20;99.90;;;;;;5051566;28;20028;-54
2023/06/18 03:27:07;;;;;;;6.40;3.72;;;15.20;99.90;;;;;;5050928;28;20086;-54
2023/06/18 03:29:36;;;;;;;8.32;3.80;;;15.10;99.90;;;;;;5051487;28;20444;-52
2023/06/18 03:32:03;;;;;;;5.82;3.70;;;15.10;99.90;;;;;;5052325;28;20040;-51
2023/06/18 03:34:31;;;;;;;6.13;3.63;;;15.10;99.90;;;;;;5051420;28;20056;-51
2023/06/18 03:37:00;;;;;;;6.10;3.92;;;15.10;99.90;;;;;;5050648;28;20436;-55
2023/06/18 03:39:27;;;;;;;6.38;4.00;;;15.10;99.90;;;;;;5051252;28;20033;-55
2023/06/18 03:41:54;;;;;;;8.73;4.38;;;15.10;99.90;;;;;;5050888;28;20508;-53
2023/06/18 03:44:20;;;;;;;9.10;4.35;;;15.10;99.90;;;;;;5051225;28;20049;-51
2023/06/18 03:46:46;;;;;;;6.55;3.90;;;15.10;99.90;;;;;;5051171;28;20521;-50
2023/06/18 03:49:13;;;;;;;5.30;3.35;;;15.10;99.90;;;;;;5052456;28;20404;-53
2023/06/18 03:51:39;;;;;;;7.18;4.07;;;15.10;99.90;;;;;;5050639;28;20029;-54
2023/06/18 03:54:06;;;;;;;9.38;3.45;;;15.10;99.90;;;;;;5051226;28;20029;-52
2023/06/18 03:56:32;;;;;;;6.30;3.40;;;15.10;99.90;;;;;;5051370;28;20025;-54
2023/06/18 03:58:58;;;;;;;5.63;3.42;;;15.10;99.90;;;;;;5050947;28;20032;-54
2023/06/18 04:01:24;;;;;;;5.82;3.50;;;15.10;99.90;;;;;;5050858;28;20021;-53
2023/06/18 04:03:50;;;;;;;7.10;3.50;;;15.10;99.90;;;;;;5051240;28;20025;-54
2023/06/18 04:06:15;;;;;;;5.55;3.15;;;15.10;99.90;;;;;;5050923;28;20114;-54
2023/06/18 04:08:42;;;;;;;8.02;3.63;;;15.30;99.90;;;;;;5050496;28;20033;-51
2023/06/18 04:11:13;;;;;;;8.38;3.75;;;15.30;99.90;;;;;;5051774;28;20206;-50
2023/06/18 04:13:38;;;;;;;8.85;4.38;;;15.30;99.90;;;;;;5052044;28;20363;-54
2023/06/18 04:16:04;;;;;;;9.75;4.65;;;15.30;99.90;;;;;;5051080;28;20125;-55
2023/06/18 04:18:31;;;;;;;4.93;3.25;;;15.40;99.90;;;;;;5050739;28;20269;-55
2023/06/18 04:20:57;;;;;;;5.90;3.45;;;15.40;99.90;;;;;;5051981;28;20032;-52
2023/06/18 04:23:23;;;;;;;6.30;3.55;;;15.40;99.90;;;;;;5050571;28;20029;-54
2023/06/18 04:25:49;;;;;;;8.23;3.90;;;15.50;99.80;;;;;;5052029;28;20362;-54
2023/06/18 04:28:16;;;;;;;7.30;3.55;;;15.50;99.90;;;;;;5050218;28;20033;-54
2023/06/18 04:30:42;;;;;;;5.95;3.63;;;15.60;99.80;;;;;;5049977;28;20055;-53
2023/06/18 04:33:08;;;;;;;6.78;3.88;;;15.70;99.90;;;;;;5051941;28;20029;-55
2023/06/18 04:35:34;;;;;;;6.57;3.58;;;15.80;99.90;;;;;;5050519;28;20037;-54
2023/06/18 04:38:00;;;;;;;6.03;3.88;;;15.80;99.90;;;;;;5050475;28;20063;-53
2023/06/18 04:40:26;;;;;;;8.85;4.10;;;15.80;99.90;;;;;;5050647;28;20393;-54
2023/06/18 04:42:52;;;;;;;5.57;3.20;;;16.00;99.90;;;;;;5050078;28;20025;-54
2023/06/18 04:45:25;;;;;;;6.70;3.75;;;16.10;99.60;;;;;;5050476;28;20063;-53
2023/06/18 04:47:51;;;;;;;6.97;3.50;;;16.10;99.90;;;;;;5050182;28;20057;-51
2023/06/18 04:50:16;;;;;;;7.72;3.70;;;16.10;99.90;;;;;;5051942;28;20442;-54
2023/06/18 04:52:46;;;;;;;8.40;4.07;;;16.20;99.90;;;;;;5049799;28;20048;-53
2023/06/18 04:55:12;;;;;;;6.18;3.80;;;16.30;99.90;;;;;;5051338;28;20029;-53
2023/06/18 04:57:40;;;;;;;5.97;3.22;;;16.40;99.90;;;;;;5049824;28;20389;-51
2023/06/18 05:00:08;;;;;;;6.30;3.40;;;16.50;99.90;;;;;;5050098;28;20083;-53
2023/06/18 05:02:36;;;;;;;6.75;3.70;;;16.70;99.60;;;;;;5049876;28;20033;-53
2023/06/18 05:05:02;;;;;;;6.65;3.95;;;16.90;99.50;;;;;;5051169;28;20481;-53
2023/06/18 05:07:27;;;;;;;5.78;3.50;;;17.10;99.00;;;;;;5050080;28;20036;-54
2023/06/18 05:09:53;;;;;;;7.53;3.63;;;17.30;99.20;;;;;;5049700;28;20033;-54
2023/06/18 05:12:19;;;;;;;5.45;3.60;;;17.40;98.70;;;;;;5049805;28;20090;-52
2023/06/18 05:14:45;;;;;;;7.07;3.55;;;17.50;97.80;;;;;;5050057;28;20079;-51
2023/06/18 05:17:11;;;;;;;6.70;3.85;;;17.70;97.50;;;;;;5051821;28;20032;-55
2023/06/18 05:19:36;;;;;;;7.28;4.35;;;17.90;95.50;;;;;;5053596;28;20025;-53
2023/06/18 05:22:02;;;;;;;5.53;3.60;;;18.20;94.70;;;;;;5053182;28;20025;-54
2023/06/18 05:24:29;;;;;;;6.82;3.60;;;18.40;94.20;;;;;;5053551;28;20481;-52
2023/06/18 05:26:55;;;;;;;6.10;3.65;;;18.50;93.30;;;;;;5053224;28;20060;-54
2023/06/18 05:29:22;;;;;;;4.95;3.40;;;18.50;93.20;;;;;;5053386;28;20082;-54
2023/06/18 05:31:50;;;;;;;7.85;4.15;;;18.60;93.00;;;;;;5053276;28;20033;-54
2023/06/18 05:34:25;;;;;;;9.07;4.45;;;18.80;92.10;;;;;;5053576;28;20064;-55
2023/06/18 05:36:51;;;;;;;5.80;3.67;;;18.90;91.50;;;;;;5053246;28;20536;-53
2023/06/18 05:39:16;;;;;;;5.50;3.58;;;18.90;91.20;;;;;;5052940;28;20501;-52
2023/06/18 05:41:42;;;;;;;7.90;3.97;;;19.00;91.00;;;;;;5053155;28;20322;-53
2023/06/18 05:44:08;;;;;;;7.15;3.70;;;19.00;91.20;;;;;;5053126;28;20032;-55
2023/06/18 05:46:34;;;;;;;5.18;3.72;;;19.00;91.30;;;;;;5054411;28;20033;-52
2023/06/18 05:49:00;;;;;;;6.20;3.42;;;19.20;90.90;;;;;;5052669;28;20033;-55
2023/06/18 05:51:27;;;;;;;7.90;4.05;;;19.20;90.80;;;;;;5052411;28;20029;-53
2023/06/18 05:53:53;;;;;;;7.28;4.07;;;19.30;90.80;;;;;;5052958;28;20294;-54
2023/06/18 05:56:19;;;;;;;6.68;3.67;;;19.40;90.60;;;;;;5052848;28;20029;-53
2023/06/18 05:58:45;;;;;;;6.40;3.58;;;19.40;90.60;;;;;;5053782;28;20697;-55
2023/06/18 06:01:12;;;;;;;6.53;3.63;;;19.60;90.30;;;;;;5052433;28;20024;-55
2023/06/18 06:03:37;;;;;;;5.20;3.45;;;19.70;90.60;;;;;;5054145;28;20052;-54
2023/06/18 06:06:04;;;;;;;6.15;3.80;;;19.80;90.30;;;;;;5052671;28;20025;-52
2023/06/18 06:08:31;;;;;;;6.18;3.65;;;19.80;90.60;;;;;;5052559;28;20035;-55
2023/06/18 06:10:59;;;;;;;9.25;4.03;;;20.00;89.70;;;;;;5052687;28;20037;-55
2023/06/18 06:13:24;;;;;;;5.93;3.75;;;20.10;89.60;;;;;;5052817;28;20555;-52
2023/06/18 06:15:57;;;;;;;7.30;3.80;;;20.20;88.60;;;;;;5052661;28;20095;-54
2023/06/18 06:18:22;;;;;;;5.45;3.47;;;20.30;87.60;;;;;;5052212;28;20505;-55
2023/06/18 06:20:48;;;;;;;6.57;3.67;;;20.40;87.50;;;;;;5053470;28;20032;-54
2023/06/18 06:23:14;;;;;;;5.90;3.58;;;20.50;87.40;;;;;;5052325;28;20024;-54
2023/06/18 06:25:40;;;;;;;6.28;3.80;;;20.60;87.10;;;;;;5053701;28;20025;-54
2023/06/18 06:28:06;;;;;;;5.20;3.50;;;20.70;86.10;;;;;;5051178;28;20040;-54
2023/06/18 06:30:32;;;;;;;6.93;4.32;;;20.70;86.40;;;;;;5052332;28;20025;-52
2023/06/18 06:33:01;;;;;;;6.88;3.60;;;20.90;85.80;;;;;;5052324;28;20036;-55
2023/06/18 06:35:28;;;;;;;9.45;3.90;;;21.00;84.70;;;;;;5052172;28;20029;-55
2023/06/18 06:37:55;;;;;;;6.30;3.63;;;21.10;85.50;;;;;;5052443;28;20040;-55
2023/06/18 06:40:23;;;;;;;6.20;3.83;;;21.30;85.20;;;;;;5052127;28;20056;-55
2023/06/18 06:42:49;;;;;;;5.35;3.40;;;21.40;85.10;;;;;;5052267;28;20025;-55
2023/06/18 06:45:22;;;;;;;5.32;3.40;;;21.50;83.70;;;;;;5052326;28;20025;-53
2023/06/18 06:48:05;;;;;;;6.35;3.60;;;21.70;84.20;;;;;;5052018;28;20033;-55
2023/06/18 06:50:39;;;;;;;9.25;5.57;;;21.90;83.50;;;;;;5052028;28;20033;-54
2023/06/18 06:53:12;;;;;;;6.78;4.35;;;22.00;84.20;;;;;;5051906;28;20037;-55
2023/06/18 06:55:38;;;;;;;6.00;3.50;;;22.20;83.70;;;;;;5051368;28;20031;-55
2023/06/18 06:58:04;;;;;;;12.13;6.40;;;22.10;84.50;;;;;;5051632;28;20025;-54
2023/06/18 07:00:30;;;;;;;6.38;3.85;;;22.30;83.70;;;;;;5051476;28;20112;-54
2023/06/18 07:02:55;;;;;;;8.07;4.55;;;22.40;82.90;;;;;;5052889;28;20040;-54
2023/06/18 07:05:21;;;;;;;4.95;3.28;;;22.50;82.50;;;;;;5051431;28;20021;-54
2023/06/18 07:07:47;;;;;;;5.95;3.90;;;22.60;82.30;;;;;;5052614;28;20055;-53
2023/06/18 07:10:13;;;;;;;7.88;5.15;;;22.70;82.60;;;;;;5052862;28;20025;-55
2023/06/18 07:12:38;;;;;;;13.13;7.68;;;22.70;83.00;;;;;;5052177;28;20409;-54
2023/06/18 07:15:05;;;;;;;9.25;5.85;;;22.80;83.20;;;;;;5052346;28;20036;-55
2023/06/18 07:17:31;;;;;;;7.07;4.35;;;22.90;83.10;;;;;;5052391;28;20033;-55
2023/06/18 07:19:56;;;;;;;7.10;4.47;;;23.00;82.40;;;;;;5052653;28;20044;-55
2023/06/18 07:22:22;;;;;;;6.15;3.70;;;23.10;81.70;;;;;;5052286;28;20367;-53
2023/06/18 07:24:48;;;;;;;7.88;4.82;;;23.10;82.80;;;;;;5052188;28;20052;-53
2023/06/18 07:27:14;;;;;;;7.63;5.05;;;23.20;82.90;;;;;;5052148;28;20467;-53
2023/06/18 07:29:40;;;;;;;6.43;3.92;;;23.40;81.80;;;;;;5052036;28;20033;-54
2023/06/18 07:32:06;;;;;;;7.80;4.90;;;23.60;80.30;;;;;;5051822;28;20033;-54
2023/06/18 07:34:32;;;;;;;7.28;4.82;;;23.80;79.80;;;;;;5052297;28;20025;-52
2023/06/18 07:36:57;;;;;;;6.82;4.50;;;24.00;79.00;;;;;;5051659;28;20033;-54
2023/06/18 07:39:25;;;;;;;9.70;5.85;;;24.10;77.90;;;;;;5051805;28;20420;-54
2023/06/18 07:41:50;;;;;;;6.97;4.47;;;24.10;79.40;;;;;;5051523;28;20047;-54
2023/06/18 07:44:16;;;;;;;5.60;3.95;;;24.30;77.90;;;;;;5051795;28;20112;-52
2023/06/18 07:46:45;;;;;;;5.35;3.67;;;24.40;78.40;;;;;;5051724;28;20025;-54
2023/06/18 07:49:11;;;;;;;;;;;24.50;77.30;;;;;;5052415;28;20037;-53
2023/06/18 07:51:37;;;;;;;5.32;3.75;;;24.60;76.00;;;;;;5051774;28;20011;-53
2023/06/18 07:54:03;;;;;;;7.32;4.05;;;24.60;76.90;;;;;;5052058;28;20456;-50
2023/06/18 07:56:29;;;;;;;8.43;5.55;;;24.60;76.10;;;;;;5051629;28;20108;-52
2023/06/18 07:58:55;;;;;;;8.82;4.57;;;24.60;76.80;;;;;;5051479;28;20375;-52
2023/06/18 08:01:21;;;;;;;10.90;3.85;;;24.70;76.40;;;;;;5051730;28;20032;-51
2023/06/18 08:03:46;;;;;;;6.15;3.40;;;24.80;75.60;;;;;;5052103;28;20021;-51
2023/06/18 08:06:12;;;;;;;5.43;3.80;;;24.80;74.70;;;;;;5052175;28;20524;-54
2023/06/18 08:08:38;;;;;;;5.45;3.88;;;24.80;75.40;;;;;;5051850;28;20037;-53
2023/06/18 08:11:04;;;;;;;6.70;3.80;;;24.90;73.80;;;;;;5051781;28;20032;-52
2023/06/18 08:13:30;;;;;;;5.80;3.58;;;25.00;74.10;;;;;;5051792;28;20501;-52
2023/06/18 08:15:56;;;;;;;6.15;3.97;;;25.10;73.90;;;;;;5051684;28;20040;-55
2023/06/18 08:18:22;;;;;;;5.28;3.65;;;25.20;74.60;;;;;;5051560;28;20117;-51
2023/06/18 08:20:47;;;;;;;6.65;3.92;;;25.30;74.00;;;;;;5051495;28;20059;-50
2023/06/18 08:23:15;;;;;;;6.45;4.07;;;25.40;73.90;;;;;;5051535;28;20028;-54
2023/06/18 08:25:41;;;;;;;6.13;4.18;;;25.50;73.60;;;;;;5051381;28;20147;-52
2023/06/18 08:28:06;;;;;;;6.53;3.70;;;25.60;73.30;;;;;;5051079;28;20025;-54
2023/06/18 08:30:32;;;;;;;6.75;4.38;;;25.60;73.00;;;;;;5051290;28;20057;-55
2023/06/18 08:32:58;;;;;;;6.30;3.80;;;25.60;72.80;;;;;;5051675;28;20056;-50
2023/06/18 08:35:24;;;;;;;5.95;3.60;;;25.60;72.20;;;;;;5051330;28;20025;-52
2023/06/18 08:37:50;;;;;;;5.97;3.60;;;25.60;72.10;;;;;;5051473;28;20036;-53
2023/06/18 08:40:19;;;;;;;7.18;4.15;;;25.70;72.80;;;;;;5051146;28;20059;-54
2023/06/18 08:42:45;;;;;;;5.90;3.70;;;25.90;71.50;;;;;;5051679;28;20033;-54
2023/06/18 08:45:10;;;;;;;5.95;3.78;;;25.90;70.90;;;;;;5051552;28;20029;-54
2023/06/18 08:47:41;;;;;;;6.28;3.92;;;26.00;71.60;;;;;;5051191;28;20029;-52
2023/06/18 08:50:09;;;;;;;5.78;4.03;;;26.20;70.30;;;;;;5050869;28;20037;-54
2023/06/18 08:52:39;;;;;;;5.88;3.97;;;26.40;69.00;;;;;;5053924;28;20033;-54
2023/06/18 08:55:08;;;;;;;6.45;4.20;;;26.40;69.20;;;;;;5054772;28;20043;-52
2023/06/18 08:57:46;;;;;;;8.15;3.70;;;26.50;68.50;;;;;;5055020;28;20104;-52
2023/06/18 09:00:13;;;;;;;5.57;3.45;;;26.40;68.60;;;;;;5054936;28;20036;-55
2023/06/18 09:02:39;;;;;;;7.15;4.53;;;26.30;68.50;;;;;;5055053;28;20118;-52
2023/06/18 09:05:05;;;;;;;6.72;4.32;;;26.20;68.10;;;;;;5055142;28;20110;-50
2023/06/18 09:07:31;;;;;;;7.43;4.10;;;26.10;68.00;;;;;;5055126;28;20031;-56
2023/06/18 09:09:57;;;;;;;7.85;4.43;;;26.10;67.50;;;;;;5055161;28;20021;-51
2023/06/18 09:12:23;;;;;;;7.13;4.30;;;26.10;68.50;;;;;;5054992;28;20239;-52
2023/06/18 09:14:49;;;;;;;4.72;3.53;;;26.20;68.90;;;;;;5054885;28;20033;-54
2023/06/18 09:17:16;;;;;;;6.68;3.72;;;26.30;67.80;;;;;;5054834;28;20104;-55
2023/06/18 09:19:43;;;;;;;4.63;3.28;;;26.50;67.50;;;;;;5053499;28;20033;-52
2023/06/18 09:22:13;;;;;;;6.35;3.38;;;26.60;64.50;;;;;;5054078;28;20072;-56
2023/06/18 09:24:40;;;;;;;6.30;3.60;;;26.70;63.00;;;;;;5054602;28;20386;-52
2023/06/18 09:27:06;;;;;;;8.98;5.90;;;26.70;63.30;;;;;;5054166;28;20059;-52
2023/06/18 09:29:41;;;;;;;7.22;4.25;;;26.80;64.40;;;;;;5054509;28;20035;-54
2023/06/18 09:32:13;;;;;;;8.43;5.78;;;26.80;64.30;;;;;;5054050;28;20259;-53
2023/06/18 09:34:40;;;;;;;5.85;3.60;;;26.90;63.70;;;;;;5054162;28;20449;-53
2023/06/18 09:37:07;;;;;;;6.30;3.63;;;27.00;63.00;;;;;;5053967;28;20029;-52
2023/06/18 09:39:38;;;;;;;6.60;4.22;;;27.10;62.40;;;;;;5054072;28;20092;-55
2023/06/18 09:42:09;;;;;;;5.35;3.70;;;27.20;63.40;;;;;;5054004;28;20473;-54
2023/06/18 09:44:36;;;;;;;6.30;4.15;;;27.20;64.20;;;;;;5054036;28;20025;-54
2023/06/18 09:47:10;;;;;;;6.00;4.13;;;27.50;62.50;;;;;;5053875;28;20036;-53
2023/06/18 09:49:37;;;;;;;9.40;6.20;;;27.60;61.30;;;;;;5053863;28;20083;-52
2023/06/18 09:52:05;;;;;;;6.47;4.10;;;27.70;60.90;;;;;;5052238;28;20033;-54
2023/06/18 09:54:39;;;;;;;6.78;4.40;;;27.80;61.00;;;;;;5052777;28;20086;-55
2023/06/18 09:57:06;;;;;;;5.32;3.80;;;27.80;60.70;;;;;;5053558;28;20033;-54
2023/06/18 09:59:32;;;;;;;6.22;3.80;;;27.80;59.00;;;;;;5053679;28;20048;-53
2023/06/18 10:01:58;;;;;;;12.23;6.78;;;27.70;59.50;;;;;;5053063;28;20029;-55
2023/06/18 10:04:25;;;;;;;5.13;3.53;;;27.70;59.80;;;;;;5053798;28;20151;-55
2023/06/18 10:06:51;;;;;;;6.70;4.10;;;27.80;58.90;;;;;;5053406;28;20116;-55
2023/06/18 10:09:20;;;;;;;8.52;5.15;;;27.80;59.20;;;;;;5053684;28;20393;-54
2023/06/18 10:11:49;;;;;;;7.13;4.13;;;27.90;59.10;;;;;;5053220;28;20099;-55
2023/06/18 10:14:18;;;;;;;7.55;4.65;;;28.00;59.30;;;;;;5053665;28;20120;-52
2023/06/18 10:16:50;;;;;;;6.10;4.20;;;28.10;59.60;;;;;;5053272;28;20038;-53
2023/06/18 10:19:25;;;;;;;7.53;4.75;;;28.00;58.80;;;;;;5052922;28;20032;-55
2023/06/18 10:21:59;;;;;;;6.53;4.75;;;28.00;58.90;;;;;;5052771;28;20064;-55
2023/06/18 10:24:33;;;;;;;6.90;4.20;;;28.00;59.00;;;;;;5053102;28;20021;-54
2023/06/18 10:26:59;;;;;;;8.38;4.50;;;28.10;57.40;;;;;;5052770;28;20057;-55
2023/06/18 10:29:25;;;;;;;8.30;4.80;;;28.20;58.30;;;;;;5053330;28;20025;-51
2023/06/18 10:31:52;;;;;;;7.32;4.13;;;28.30;57.80;;;;;;5052860;28;20417;-55
2023/06/18 10:34:18;;;;;;;5.85;3.67;;;28.30;57.10;;;;;;5052931;28;20029;-52
2023/06/18 10:36:45;;;;;;;4.65;3.17;;;28.20;57.10;;;;;;5053408;28;20032;-52
2023/06/18 10:39:11;;;;;;;10.77;6.70;;;28.30;56.50;;;;;;5052459;28;20052;-50
2023/06/18 10:41:37;;;;;;;7.10;4.82;;;28.40;59.30;;;;;;5052656;28;20037;-54
2023/06/18 10:44:02;;;;;;;6.47;4.07;;;28.70;58.70;;;;;;5053114;28;20051;-54
2023/06/18 10:46:33;;;;;;;6.82;3.88;;;28.70;58.70;;;;;;5052816;28;20033;-52
2023/06/18 10:49:20;;;;;;;5.90;3.90;;;28.60;57.70;;;;;;5052262;28;20028;-53
2023/06/18 10:52:22;;;;;;;7.65;4.38;;;28.70;56.20;;;;;;5053137;28;20124;-53
2023/06/18 10:54:52;;;;;;;6.18;4.07;;;28.40;56.40;;;;;;5049018;28;20044;-54
2023/06/18 10:57:18;;;;;;;6.00;3.63;;;28.30;56.40;;;;;;5052462;28;20029;-52
2023/06/18 10:59:45;;;;;;;5.15;3.40;;;28.30;56.90;;;;;;5052717;28;20028;-53
2023/06/18 11:02:12;;;;;;;7.23;3.50;;;28.40;57.60;;;;;;5051849;28;20064;-51
2023/06/18 11:04:38;;;;;;;5.63;3.50;;;28.70;56.80;;;;;;5052262;28;20048;-51
2023/06/18 11:07:14;;;;;;;8.73;5.55;;;28.90;57.10;;;;;;5052094;28;20043;-52
2023/06/18 11:10:07;;;;;;;5.38;3.75;;;29.10;57.40;;;;;;5052232;28;20128;-51
2023/06/18 11:12:37;;;;;;;7.07;3.85;;;29.20;55.90;;;;;;5049459;28;20123;-53
2023/06/18 11:15:15;;;;;;;6.88;4.32;;;29.30;56.10;;;;;;5052105;28;20035;-53
2023/06/18 11:17:48;;;;;;;5.75;3.58;;;29.40;55.70;;;;;;5051943;28;20440;-54
2023/06/18 11:20:15;;;;;;;6.82;4.40;;;29.40;55.10;;;;;;5051988;28;20033;-55
2023/06/18 11:22:41;;;;;;;5.82;3.72;;;29.50;53.60;;;;;;5052043;28;20029;-54
2023/06/18 11:25:09;;;;;;;5.82;3.80;;;29.40;53.70;;;;;;5052041;28;20025;-54
2023/06/18 11:27:40;;;;;;;5.45;3.45;;;29.40;53.90;;;;;;5051974;28;20037;-54
2023/06/18 11:30:09;;;;;;;4.45;3.05;;;29.30;52.60;;;;;;5052121;28;20044;-51
2023/06/18 11:32:34;;;;;;;;;;;29.20;51.60;;;;;;5052250;28;20044;-53
2023/06/18 11:35:00;;;;;;;4.82;3.50;;;29.10;52.40;;;;;;5051992;28;19909;-51
2023/06/18 11:37:27;;;;;;;4.45;3.08;;;28.90;52.50;;;;;;5051941;28;20028;-55
2023/06/18 11:39:56;;;;;;;4.40;3.33;;;28.80;52.60;;;;;;5052580;28;20174;-51
2023/06/18 11:42:26;;;;;;;4.97;3.25;;;28.70;51.60;;;;;;5051956;28;20056;-55
2023/06/18 11:44:54;;;;;;;5.70;3.17;;;28.70;52.40;;;;;;5052012;28;20029;-52
2023/06/18 11:47:20;;;;;;;5.78;3.65;;;28.80;52.70;;;;;;5051984;28;20429;-54
2023/06/18 11:49:48;;;;;;;5.57;3.78;;;28.90;52.50;;;;;;5052158;28;20087;-54
2023/06/18 11:52:15;;;;;;;;;;;29.00;52.30;;;;;;5052654;28;20068;-54
2023/06/18 11:54:41;;;;;;;5.63;3.45;;;28.90;52.80;;;;;;5051022;28;20385;-53
2023/06/18 11:57:10;;;;;;;6.75;3.80;;;29.00;53.10;;;;;;5051553;28;20436;-54
2023/06/18 11:59:36;;;;;;;5.68;3.70;;;29.10;53.20;;;;;;5051893;28;20040;-51
2023/06/18 12:02:16;;;;;;;5.65;3.38;;;29.10;52.30;;;;;;5051458;28;20436;-53
2023/06/18 12:04:43;;;;;;;5.45;3.17;;;29.00;53.20;;;;;;5051437;28;20082;-50
2023/06/18 12:07:21;;;;;;;8.90;5.83;;;28.90;53.60;;;;;;5050213;28;20032;-54
2023/06/18 12:09:48;;;;;;;6.97;3.58;;;28.90;54.20;;;;;;5051757;28;20427;-54
2023/06/18 12:12:41;;;;;;;4.40;3.22;;;29.10;53.40;;;;;;5051033;28;20115;-54
2023/06/18 12:15:34;;;;;;;6.13;3.72;;;29.30;52.80;;;;;;5051204;28;20099;-53
2023/06/18 12:18:17;;;;;;;7.43;4.60;;;29.10;54.50;;;;;;5051160;28;20037;-51
2023/06/18 12:20:43;;;;;;;5.97;3.97;;;29.10;53.70;;;;;;5049622;28;20033;-53
2023/06/18 12:23:11;;;;;;;5.70;3.28;;;29.10;53.90;;;;;;5051187;28;20116;-52
2023/06/18 12:25:37;;;;;;;5.22;3.20;;;29.20;53.60;;;;;;5051388;28;20028;-51
2023/06/18 12:28:04;;;;;;;6.25;3.75;;;29.20;53.80;;;;;;5054908;28;20029;-51
2023/06/18 12:30:34;;;;;;;4.95;3.60;;;29.20;54.10;;;;;;5053732;28;20453;-52
2023/06/18 12:33:10;;;;;;;6.03;4.00;;;29.30;55.40;;;;;;5055511;28;20035;-55
2023/06/18 12:35:39;;;;;;;5.82;3.70;;;29.20;55.00;;;;;;5055130;28;20033;-53
2023/06/18 12:38:09;;;;;;;7.40;4.25;;;29.20;55.10;;;;;;5055266;28;20172;-52
2023/06/18 12:40:51;;;;;;;6.25;3.97;;;29.10;55.60;;;;;;5055315;28;20463;-54
2023/06/18 12:43:18;;;;;;;5.28;4.00;;;29.10;54.90;;;;;;5055119;28;20162;-54
2023/06/18 12:45:48;;;;;;;5.45;3.53;;;29.10;55.30;;;;;;5055106;28;20033;-54
2023/06/18 12:48:20;;;;;;;5.20;3.60;;;29.10;55.30;;;;;;5054719;28;20029;-53
2023/06/18 12:50:51;;;;;;;4.55;3.33;;;29.10;55.30;;;;;;5053981;28;20067;-53
2023/06/18 12:53:27;;;;;;;6.20;4.22;;;29.00;54.90;;;;;;5055131;28;20025;-52